Time;durP1;ratioP1;P1;durP2;ratioP2;P2;SDS_P1;SDS_P2;PMS_P1;PMS_P2;Temp;Humidity;BMP_temperature;BMP_pressure;BME280_temperature;BME280_humidity;BME280_pressure;Samples;Min_cycle;Max_cycle;Signal;HPM_P1;HPM_P2
2023/09/24 00:00:28;;;;;;;13.73;6.17;;;;;;;21.31;77.34;100638.30;126391;1086;104165;-75
2023/09/24 00:03:16;;;;;;;13.07;6.40;;;;;;;21.26;77.25;100641.00;126393;1085;104419;-74
2023/09/24 00:05:46;;;;;;;12.97;5.77;;;;;;;21.24;77.48;100639.22;126362;1086;101982;-75
2023/09/24 00:08:15;;;;;;;11.93;6.07;;;;;;;21.19;77.89;100644.59;126341;1086;102170;-75
2023/09/24 00:10:50;;;;;;;14.37;5.97;;;;;;;21.17;78.28;100641.92;126316;1086;104217;-75
2023/09/24 00:13:18;;;;;;;12.57;5.90;;;;;;;21.14;77.87;100638.40;126434;1086;101832;-75
2023/09/24 00:15:47;;;;;;;12.83;5.93;;;;;;;21.08;78.20;100641.09;126416;1086;104167;-75
2023/09/24 00:18:17;;;;;;;13.73;6.47;;;;;;;21.00;78.21;100638.47;126374;1086;104188;-75
2023/09/24 00:20:46;;;;;;;14.13;6.10;;;;;;;20.94;78.70;100639.41;126447;1086;105905;-76
2023/09/24 00:23:14;;;;;;;16.57;6.23;;;;;;;20.89;78.20;100637.64;126445;1086;104232;-75
2023/09/24 00:25:44;;;;;;;13.40;6.10;;;;;;;20.87;78.65;100637.66;126378;1086;104261;-75
2023/09/24 00:28:13;;;;;;;14.37;6.40;;;;;;;20.84;77.98;100629.66;126392;1086;104204;-74
2023/09/24 00:30:43;;;;;;;13.40;6.17;;;;;;;20.81;79.01;100635.89;126493;1086;104325;-75
2023/09/24 00:33:12;;;;;;;12.37;6.80;;;;;;;20.76;79.01;100626.16;126345;1086;104180;-75
2023/09/24 00:35:42;;;;;;;10.87;6.30;;;;;;;20.71;79.31;100627.93;126369;1086;104149;-77
2023/09/24 00:38:11;;;;;;;12.97;6.50;;;;;;;20.67;79.46;100628.86;126352;1086;101829;-77
2023/09/24 00:40:39;;;;;;;12.33;6.60;;;;;;;20.65;79.40;100631.52;126360;1086;101851;-76
2023/09/24 00:43:26;;;;;;;12.87;6.30;;;;;;;20.62;78.82;100629.72;126269;1086;107127;-77
2023/09/24 00:45:56;;;;;;;10.93;6.27;;;;;;;20.59;79.12;100639.52;126407;1086;104644;-75
2023/09/24 00:48:28;;;;;;;12.20;6.20;;;;;;;20.57;79.09;100635.94;126364;1086;104296;-74
2023/09/24 00:50:58;;;;;;;13.73;6.40;;;;;;;20.57;80.13;100635.94;126452;1085;102325;-75
2023/09/24 00:53:28;;;;;;;13.23;6.27;;;;;;;20.57;80.36;100635.94;126441;1086;102398;-74
2023/09/24 00:55:58;;;;;;;13.20;6.67;;;;;;;20.55;80.68;100633.28;126296;1086;104202;-75
2023/09/24 00:58:30;;;;;;;12.30;6.07;;;;;;;20.55;79.74;100619.95;126371;1086;104204;-74
2023/09/24 01:00:59;;;;;;;14.40;6.50;;;;;;;20.54;79.86;100623.53;126375;1086;105520;-75
2023/09/24 01:03:28;;;;;;;12.97;6.30;;;;;;;20.51;79.74;100623.54;126314;1086;101816;-75
2023/09/24 01:05:58;;;;;;;13.00;6.30;;;;;;;20.48;80.05;100632.42;126413;1086;104334;-77
2023/09/24 01:08:31;;;;;;;12.20;6.40;;;;;;;20.47;80.59;100627.09;126372;1086;104210;-77
2023/09/24 01:11:00;;;;;;;11.88;6.60;;;;;;;20.44;80.62;100633.34;126420;1086;104255;-77
2023/09/24 01:13:38;;;;;;;11.50;6.13;;;;;;;20.41;80.02;100635.11;126424;1086;102095;-76
2023/09/24 01:16:07;;;;;;;14.40;6.50;;;;;;;20.38;81.23;100629.78;126347;1086;101867;-75
2023/09/24 01:18:38;;;;;;;11.80;6.37;;;;;;;20.38;81.31;100630.70;126476;1086;104264;-76
2023/09/24 01:21:12;;;;;;;13.37;6.67;;;;;;;20.37;81.90;100633.36;126415;1086;104228;-76
2023/09/24 01:23:45;;;;;;;10.67;6.30;;;;;;;20.36;80.96;100632.45;126396;1086;102134;-76
2023/09/24 01:26:14;;;;;;;16.63;7.27;;;;;;;20.36;81.05;100627.13;126355;1086;104258;-76
2023/09/24 01:28:44;;;;;;;12.30;5.87;;;;;;;20.36;81.48;100634.24;126446;1086;104229;-76
2023/09/24 01:31:15;;;;;;;11.63;6.00;;;;;;;20.33;81.93;100632.46;126354;1086;104216;-76
2023/09/24 01:33:44;;;;;;;10.90;5.60;;;;;;;20.33;82.01;100632.46;126456;1086;104215;-76
2023/09/24 01:36:13;;;;;;;11.17;5.67;;;;;;;20.35;82.13;100636.03;126368;1086;104200;-75
2023/09/24 01:38:43;;;;;;;9.77;5.73;;;;;;;20.35;82.41;100640.45;126379;1086;101899;-76
2023/09/24 01:41:12;;;;;;;16.77;6.30;;;;;;;20.31;82.82;100639.58;127546;1085;102133;-76
2023/09/24 01:43:42;;;;;;;16.97;6.10;;;;;;;20.32;82.10;100641.36;126385;1086;101943;-75
2023/09/24 01:46:13;;;;;;;15.37;6.03;;;;;;;20.34;81.88;100650.23;126364;1086;104228;-76
2023/09/24 01:48:43;;;;;;;12.73;5.70;;;;;;;20.33;81.99;100642.23;126400;1086;104162;-75
2023/09/24 01:51:12;;;;;;;12.10;5.60;;;;;;;20.32;82.76;100649.36;126415;1086;101823;-76
2023/09/24 01:53:42;;;;;;;9.70;5.50;;;;;;;20.31;83.00;100644.03;126390;1086;105540;-75
2023/09/24 01:56:12;;;;;;;10.17;5.50;;;;;;;20.30;82.56;100640.45;126423;1086;104165;-76
2023/09/24 01:58:42;;;;;;;10.33;5.40;;;;;;;20.29;83.17;100641.38;126357;1086;104244;-75
2023/09/24 02:01:11;;;;;;;12.77;5.60;;;;;;;20.28;82.95;100645.80;126413;1085;104255;-76
2023/09/24 02:03:41;;;;;;;10.07;5.37;;;;;;;20.28;82.13;100652.91;126331;1086;104222;-76
2023/09/24 02:06:14;;;;;;;11.60;5.90;;;;;;;20.28;82.79;100651.12;126433;1086;101819;-75
2023/09/24 02:08:42;;;;;;;8.87;5.67;;;;;;;20.29;82.69;100652.03;126401;1086;102050;-76
2023/09/24 02:11:11;;;;;;;9.70;5.67;;;;;;;20.28;82.79;100663.56;126366;1086;104414;-75
2023/09/24 02:13:40;;;;;;;12.30;5.77;;;;;;;20.29;82.62;100665.35;126352;1086;104145;-75
2023/09/24 02:16:09;;;;;;;8.73;5.53;;;;;;;20.28;82.93;100680.43;126472;1086;104155;-76
2023/09/24 02:18:37;;;;;;;11.00;5.40;;;;;;;20.27;83.49;100677.77;126390;1086;104184;-75
2023/09/24 02:21:14;;;;;;;8.93;5.37;;;;;;;20.25;83.26;100680.44;126345;1086;103377;-75
2023/09/24 02:23:43;;;;;;;10.03;5.63;;;;;;;20.25;83.05;100674.23;126307;1086;104238;-75
2023/09/24 02:26:13;;;;;;;12.70;5.90;;;;;;;20.24;82.72;100678.68;126353;1086;104254;-75
2023/09/24 02:28:42;;;;;;;10.47;6.10;;;;;;;20.27;84.02;100685.77;126335;1086;104235;-75
2023/09/24 02:31:11;;;;;;;9.23;5.60;;;;;;;20.28;82.92;100691.09;126381;1086;101938;-75
2023/09/24 02:33:40;;;;;;;9.70;5.57;;;;;;;20.30;83.85;100685.76;126393;1086;101805;-75
2023/09/24 02:36:09;;;;;;;11.63;5.50;;;;;;;20.32;83.30;100686.66;126304;1086;104204;-75
2023/09/24 02:38:38;;;;;;;9.77;5.90;;;;;;;20.33;83.68;100688.42;126394;1086;102005;-75
2023/09/24 02:41:07;;;;;;;9.23;5.17;;;;;;;20.34;83.05;100681.33;126271;1086;104226;-75
2023/09/24 02:43:37;;;;;;;8.73;5.20;;;;;;;20.32;83.16;100673.34;126338;1086;104177;-75
2023/09/24 02:46:06;;;;;;;10.10;5.43;;;;;;;20.32;84.06;100662.69;126390;1086;104318;-76
2023/09/24 02:48:35;;;;;;;10.80;5.53;;;;;;;20.31;83.74;100660.90;126372;1085;104222;-76
2023/09/24 02:51:08;;;;;;;11.07;5.23;;;;;;;20.25;83.29;100658.24;126415;1086;104260;-76
2023/09/24 02:53:38;;;;;;;9.65;5.22;;;;;;;20.22;83.80;100655.58;126388;1086;104209;-75
2023/09/24 02:56:07;;;;;;;9.47;5.47;;;;;;;20.18;83.17;100669.78;126399;1086;104325;-75
2023/09/24 02:58:36;;;;;;;12.13;5.77;;;;;;;20.16;83.18;100667.13;126390;1086;104152;-75
2023/09/24 03:01:15;;;;;;;8.77;5.40;;;;;;;20.18;83.92;100675.11;126413;1085;104066;-75
2023/09/24 03:03:44;;;;;;;10.67;5.53;;;;;;;20.16;83.41;100679.56;126371;1086;104248;-75
2023/09/24 03:06:13;;;;;;;10.47;5.63;;;;;;;20.16;84.14;100684.89;126330;1086;104188;-74
2023/09/24 03:08:42;;;;;;;9.63;5.80;;;;;;;20.16;83.36;100687.55;126362;1086;104158;-75
2023/09/24 03:11:14;;;;;;;9.43;5.53;;;;;;;20.13;83.62;100680.44;126344;1086;104362;-75
2023/09/24 03:13:43;;;;;;;10.57;5.40;;;;;;;20.10;83.85;100683.11;126384;1086;104257;-76
2023/09/24 03:16:12;;;;;;;11.13;5.60;;;;;;;20.06;83.55;100682.23;126385;1085;104167;-76
2023/09/24 03:18:40;;;;;;;11.27;5.80;;;;;;;20.03;84.35;100684.02;126327;1085;104268;-75
2023/09/24 03:21:14;;;;;;;9.40;5.53;;;;;;;19.96;83.53;100684.89;126391;1086;104239;-75
2023/09/24 03:23:43;;;;;;;10.17;6.27;;;;;;;19.91;83.66;100679.56;126329;1086;104242;-75
2023/09/24 03:26:15;;;;;;;11.87;6.30;;;;;;;19.87;83.61;100686.68;126328;1086;108325;-75
2023/09/24 03:28:43;;;;;;;11.70;5.77;;;;;;;19.84;84.16;100688.46;126354;1086;104226;-75
2023/09/24 03:31:13;;;;;;;15.73;6.03;;;;;;;19.82;84.03;100682.23;126378;1086;102041;-76
2023/09/24 03:33:42;;;;;;;13.05;6.10;;;;;;;19.78;83.70;100691.12;126349;1086;101964;-75
2023/09/24 03:36:11;;;;;;;10.15;5.65;;;;;;;19.79;83.76;100693.78;126409;1086;104180;-75
2023/09/24 03:38:39;;;;;;;13.77;6.30;;;;;;;19.79;84.10;100692.88;126402;1086;102263;-75
2023/09/24 03:41:08;;;;;;;10.47;6.13;;;;;;;19.77;84.18;100699.98;126375;1086;104721;-75
2023/09/24 03:43:37;;;;;;;12.47;6.30;;;;;;;19.76;83.34;100707.06;126418;1086;104185;-75
2023/09/24 03:46:05;;;;;;;11.20;6.30;;;;;;;19.77;83.71;100700.86;126445;1086;101918;-76
2023/09/24 03:48:34;;;;;;;13.27;6.23;;;;;;;19.78;83.52;100697.32;126317;1086;104235;-76
2023/09/24 03:51:03;;;;;;;10.97;6.57;;;;;;;19.80;83.79;100699.98;126328;1086;104402;-76
2023/09/24 03:53:31;;;;;;;10.93;6.50;;;;;;;19.80;84.14;100699.98;126406;1086;104168;-76
2023/09/24 03:56:00;;;;;;;11.00;6.43;;;;;;;19.81;84.40;100705.31;126310;1086;104238;-76
2023/09/24 03:58:28;;;;;;;12.47;6.60;;;;;;;19.84;84.57;100707.98;126352;1086;104314;-76
2023/09/24 04:00:57;;;;;;;12.40;6.37;;;;;;;19.84;83.82;100709.77;126320;1086;104185;-76
2023/09/24 04:03:26;;;;;;;13.10;6.30;;;;;;;19.82;84.51;100707.09;126337;1086;104377;-76
2023/09/24 04:05:57;;;;;;;10.83;6.17;;;;;;;19.83;84.08;100722.16;126285;1085;104289;-76
2023/09/24 04:08:26;;;;;;;11.20;6.17;;;;;;;19.84;84.75;100715.97;126310;1086;102190;-76
2023/09/24 04:10:54;;;;;;;11.93;6.30;;;;;;;19.86;84.86;100715.97;127331;1086;104226;-76
2023/09/24 04:13:23;;;;;;;10.43;6.20;;;;;;;19.87;84.14;100717.75;126297;1086;104226;-76
2023/09/24 04:15:52;;;;;;;10.20;6.10;;;;;;;19.90;84.95;100715.97;126393;1086;104178;-75
2023/09/24 04:18:21;;;;;;;10.83;6.30;;;;;;;19.94;84.82;100716.85;126313;1086;102227;-75
2023/09/24 04:20:51;;;;;;;11.80;6.33;;;;;;;19.97;84.56;100713.31;126396;1086;104178;-76
2023/09/24 04:23:20;;;;;;;11.07;6.33;;;;;;;19.97;84.81;100711.53;126369;1086;104254;-76
2023/09/24 04:25:51;;;;;;;12.50;6.17;;;;;;;19.99;85.11;100708.86;126404;1086;101846;-75
2023/09/24 04:28:19;;;;;;;9.25;5.50;;;;;;;20.02;85.01;100712.41;126304;1086;104041;-75
2023/09/24 04:30:49;;;;;;;9.60;5.97;;;;;;;20.05;85.42;100715.08;126335;1086;104158;-74
2023/09/24 04:33:18;;;;;;;11.50;6.10;;;;;;;20.08;85.21;100717.73;126407;1086;101858;-74
2023/09/24 04:35:47;;;;;;;13.60;5.77;;;;;;;20.14;84.81;100718.65;126346;1086;102264;-75
2023/09/24 04:38:17;;;;;;;10.10;6.10;;;;;;;20.19;85.71;100723.06;126388;1086;104344;-74
2023/09/24 04:40:45;;;;;;;12.53;5.57;;;;;;;20.22;85.33;100728.39;126327;1086;104328;-75
2023/09/24 04:43:15;;;;;;;13.00;6.03;;;;;;;20.22;85.33;100738.17;126333;1086;104159;-75
2023/09/24 04:45:44;;;;;;;11.83;6.50;;;;;;;20.22;85.36;100739.05;126358;1086;104264;-75
2023/09/24 04:48:12;;;;;;;14.30;6.03;;;;;;;20.24;84.91;100745.29;126342;1086;103377;-74
2023/09/24 04:50:41;;;;;;;8.93;5.80;;;;;;;20.27;85.48;100744.38;126416;1086;104229;-75
2023/09/24 04:53:10;;;;;;;11.17;5.93;;;;;;;20.28;85.44;100744.38;126373;1086;101925;-75
2023/09/24 04:55:39;;;;;;;11.53;5.90;;;;;;;20.29;85.13;100754.16;126373;1086;104261;-75
2023/09/24 04:58:07;;;;;;;14.37;6.23;;;;;;;20.29;85.00;100748.83;126396;1086;102334;-75
2023/09/24 05:00:36;;;;;;;10.90;6.50;;;;;;;20.33;85.42;100755.04;126596;1085;104165;-76
2023/09/24 05:03:05;;;;;;;14.73;7.33;;;;;;;20.33;84.84;100748.83;126640;1086;104250;-76
2023/09/24 05:05:34;;;;;;;16.27;7.17;;;;;;;20.33;85.12;100755.04;126752;1086;102012;-76
2023/09/24 05:08:03;;;;;;;13.60;6.70;;;;;;;20.34;85.25;100754.16;126555;1086;105338;-76
2023/09/24 05:10:32;;;;;;;12.97;6.97;;;;;;;20.36;84.89;100749.70;126968;1086;104149;-76
2023/09/24 05:13:01;;;;;;;14.95;7.00;;;;;;;20.39;85.03;100752.37;126627;1085;102257;-76
2023/09/24 05:15:30;;;;;;;15.77;7.83;;;;;;;20.41;85.36;100745.28;126715;1086;104204;-76
2023/09/24 05:17:58;;;;;;;13.70;7.17;;;;;;;20.44;86.06;100741.70;126688;1086;104383;-76
2023/09/24 05:20:30;;;;;;;16.30;8.95;;;;;;;20.45;84.88;100755.03;126599;1085;102109;-75
2023/09/24 05:23:00;;;;;;;17.17;8.33;;;;;;;20.43;85.28;100753.28;126533;1086;104200;-75
2023/09/24 05:25:29;;;;;;;16.47;8.33;;;;;;;20.40;84.78;100756.83;126610;1086;101841;-76
2023/09/24 05:27:58;;;;;;;13.23;8.20;;;;;;;20.39;84.82;100757.70;126600;1086;104219;-77
2023/09/24 05:30:27;;;;;;;15.73;8.23;;;;;;;20.34;84.84;100755.95;126642;1086;102044;-76
2023/09/24 05:32:56;;;;;;;17.87;8.60;;;;;;;20.32;85.40;100755.04;126584;1086;103247;-76
2023/09/24 05:35:24;;;;;;;15.50;8.07;;;;;;;20.31;85.41;100755.95;126533;1086;104200;-75
2023/09/24 05:37:53;;;;;;;17.27;8.03;;;;;;;20.31;84.97;100756.83;126578;1086;102034;-76
2023/09/24 05:40:22;;;;;;;14.40;7.90;;;;;;;20.32;85.66;100755.95;126600;1086;104322;-77
2023/09/24 05:42:51;;;;;;;15.03;8.47;;;;;;;20.40;85.83;100767.48;126454;1085;102005;-76
2023/09/24 05:45:19;;;;;;;14.73;7.63;;;;;;;20.48;86.02;100771.02;126612;1086;101784;-77
2023/09/24 05:47:48;;;;;;;12.73;7.17;;;;;;;20.55;85.14;100776.34;126735;1086;104215;-77
2023/09/24 05:50:17;;;;;;;12.17;7.23;;;;;;;20.60;85.76;100779.89;126652;1086;104163;-77
2023/09/24 05:52:45;;;;;;;13.93;7.43;;;;;;;20.64;85.76;100781.67;126673;1086;104162;-76
2023/09/24 05:55:14;;;;;;;13.97;7.67;;;;;;;20.68;85.54;100787.91;126678;1086;104363;-76
2023/09/24 05:57:43;;;;;;;14.77;7.43;;;;;;;20.76;85.81;100775.48;126651;1086;104043;-76
2023/09/24 06:00:14;;;;;;;14.50;8.20;;;;;;;20.79;85.28;100781.69;126524;1086;104207;-76
2023/09/24 06:02:42;;;;;;;15.20;7.53;;;;;;;20.88;85.85;100783.45;126484;1086;104152;-77
2023/09/24 06:05:11;;;;;;;14.67;7.50;;;;;;;20.91;85.50;100794.13;126657;1086;102470;-77
2023/09/24 06:07:40;;;;;;;12.97;6.97;;;;;;;20.97;85.86;100803.87;126696;1086;102017;-74
2023/09/24 06:10:11;;;;;;;12.77;7.10;;;;;;;21.04;85.50;100791.42;127713;1085;101912;-75
2023/09/24 06:12:39;;;;;;;13.17;7.40;;;;;;;21.10;85.70;100789.62;126623;1086;104175;-75
2023/09/24 06:15:13;;;;;;;11.87;6.70;;;;;;;21.14;85.12;100796.70;126669;1086;102002;-75
2023/09/24 06:17:41;;;;;;;;;;;;;;;21.13;85.54;100800.28;126642;1086;104185;-74
2023/09/24 06:20:11;;;;;;;11.03;6.43;;;;;;;21.14;86.03;100795.82;126605;1086;104230;-75
2023/09/24 06:22:40;;;;;;;12.60;7.20;;;;;;;21.12;85.64;100801.16;126582;1086;104274;-75
2023/09/24 06:25:09;;;;;;;11.10;6.73;;;;;;;21.11;85.71;100794.04;126545;1086;101908;-74
2023/09/24 06:27:40;;;;;;;11.67;6.77;;;;;;;21.12;85.16;100801.16;126461;1086;104191;-75
2023/09/24 06:30:10;;;;;;;9.73;5.83;;;;;;;21.07;85.51;100805.63;126739;1086;104213;-76
2023/09/24 06:32:39;;;;;;;11.67;6.73;;;;;;;21.05;85.24;100804.76;126671;1086;104031;-76
2023/09/24 06:35:09;;;;;;;13.33;6.80;;;;;;;21.03;85.60;100817.19;126697;1086;101848;-77
2023/09/24 06:37:37;;;;;;;14.00;7.00;;;;;;;21.05;85.39;100817.19;126634;1086;102105;-77
2023/09/24 06:40:09;;;;;;;12.63;6.50;;;;;;;21.09;85.90;100797.62;126764;1086;104175;-79
2023/09/24 06:42:38;;;;;;;12.20;7.10;;;;;;;21.12;85.38;100800.28;126918;1086;104234;-79
2023/09/24 06:45:08;;;;;;;13.27;7.13;;;;;;;21.14;85.82;100809.16;126879;1086;102066;-77
2023/09/24 06:47:37;;;;;;;11.07;6.57;;;;;;;21.19;85.28;100810.94;126810;1085;104172;-77
2023/09/24 06:50:08;;;;;;;10.80;6.50;;;;;;;21.33;85.43;100810.89;126861;1086;104730;-77
2023/09/24 06:52:39;;;;;;;10.10;5.70;;;;;;;21.45;85.67;100820.61;126886;1086;104165;-80
2023/09/24 06:55:10;;;;;;;9.37;5.90;;;;;;;21.56;85.62;100812.59;126814;1086;102119;-77
2023/09/24 06:57:39;;;;;;;10.33;6.13;;;;;;;21.67;85.33;100825.89;126934;1086;104165;-77
2023/09/24 07:00:10;;;;;;;11.27;6.10;;;;;;;21.78;85.60;100826.72;126858;1086;101787;-77
2023/09/24 07:02:39;;;;;;;8.47;5.53;;;;;;;21.89;85.57;100827.58;127896;1085;104149;-77
2023/09/24 07:05:08;;;;;;;9.07;5.60;;;;;;;22.03;85.38;100831.92;126783;1086;104276;-76
2023/09/24 07:07:37;;;;;;;8.80;5.65;;;;;;;22.19;85.57;100836.28;126791;1086;102118;-75
2023/09/24 07:10:08;;;;;;;9.67;5.43;;;;;;;22.28;85.38;100842.45;126703;1086;104338;-76
2023/09/24 07:12:37;;;;;;;12.03;5.57;;;;;;;22.25;84.88;100838.91;126860;1084;104213;-77
2023/09/24 07:15:08;;;;;;;10.60;5.97;;;;;;;22.27;84.52;100841.58;126746;1086;102034;-76
2023/09/24 07:17:37;;;;;;;12.83;5.70;;;;;;;22.39;84.90;100844.20;126849;1086;102075;-77
2023/09/24 07:20:09;;;;;;;10.30;5.50;;;;;;;22.53;85.15;100844.09;126756;1086;102580;-76
2023/09/24 07:22:38;;;;;;;9.37;5.50;;;;;;;22.69;84.56;100847.52;126902;1086;102074;-78
2023/09/24 07:25:08;;;;;;;10.00;5.40;;;;;;;22.80;84.33;100844.74;126893;1084;101862;-77
2023/09/24 07:27:36;;;;;;;9.57;5.17;;;;;;;22.88;84.30;100836.64;126892;1086;101915;-78
2023/09/24 07:30:08;;;;;;;9.87;5.20;;;;;;;22.92;84.10;100833.92;126742;1086;101949;-76
2023/09/24 07:32:37;;;;;;;9.67;5.30;;;;;;;22.97;83.89;100832.08;126802;1086;104628;-77
2023/09/24 07:35:09;;;;;;;11.07;5.30;;;;;;;23.04;83.52;100829.34;126684;1086;104153;-76
2023/09/24 07:37:39;;;;;;;7.97;4.90;;;;;;;23.10;83.21;100840.89;126691;1086;104159;-79
2023/09/24 07:40:14;;;;;;;7.90;5.20;;;;;;;23.14;83.06;100841.77;126794;1086;102018;-76
2023/09/24 07:42:46;;;;;;;9.53;5.27;;;;;;;23.18;82.37;100846.16;126544;1086;104149;-76
2023/09/24 07:45:18;;;;;;;10.63;5.70;;;;;;;23.18;81.48;100846.16;126777;1086;101995;-76
2023/09/24 07:47:47;;;;;;;11.23;5.57;;;;;;;23.20;81.18;100844.34;126515;1086;102072;-76
2023/09/24 07:50:16;;;;;;;10.03;5.63;;;;;;;23.25;81.58;100847.88;126657;1085;102099;-77
2023/09/24 07:52:44;;;;;;;8.47;4.87;;;;;;;23.33;81.13;100845.99;126685;1085;104225;-76
2023/09/24 07:55:13;;;;;;;6.67;4.83;;;;;;;23.43;80.20;100840.53;126733;1086;104232;-76
2023/09/24 07:57:42;;;;;;;11.93;5.40;;;;;;;23.46;80.35;100845.85;126681;1086;104181;-77
2023/09/24 08:00:13;;;;;;;10.87;5.23;;;;;;;23.55;79.72;100835.03;126842;1086;104251;-76
2023/09/24 08:02:43;;;;;;;11.00;5.87;;;;;;;23.63;79.47;100840.29;126789;1086;101974;-76
2023/09/24 08:05:12;;;;;;;8.03;5.30;;;;;;;23.67;79.24;100826.84;126899;1086;104775;-77
2023/09/24 08:07:41;;;;;;;9.07;5.30;;;;;;;23.77;79.18;100824.91;126857;1086;101970;-78
2023/09/24 08:10:11;;;;;;;8.00;5.17;;;;;;;23.86;78.39;100829.30;126853;1086;104157;-77
2023/09/24 08:12:40;;;;;;;12.37;5.00;;;;;;;24.03;77.93;100829.94;126832;1086;102254;-76
2023/09/24 08:15:09;;;;;;;8.30;4.77;;;;;;;24.12;77.92;100831.61;126859;1086;102088;-79
2023/09/24 08:17:39;;;;;;;11.67;4.97;;;;;;;24.18;77.36;100830.61;126760;1086;104219;-75
2023/09/24 08:20:10;;;;;;;9.37;4.83;;;;;;;24.21;76.83;100830.56;126712;1086;104152;-76
2023/09/24 08:22:38;;;;;;;9.67;4.90;;;;;;;24.29;76.11;100827.76;126841;1086;101845;-77
2023/09/24 08:25:08;;;;;;;10.70;5.27;;;;;;;24.37;75.77;100834.78;126657;1086;102015;-76
2023/09/24 08:27:37;;;;;;;12.33;4.87;;;;;;;24.38;75.25;100820.44;126620;1086;104232;-76
2023/09/24 08:30:08;;;;;;;12.23;5.97;;;;;;;24.43;75.20;100827.54;126618;1086;104167;-76
2023/09/24 08:32:36;;;;;;;9.20;5.20;;;;;;;24.50;74.42;100818.49;126788;1086;101887;-77
2023/09/24 08:35:07;;;;;;;10.77;4.60;;;;;;;24.58;73.83;100819.27;126723;1086;104260;-77
2023/09/24 08:37:36;;;;;;;11.03;4.90;;;;;;;24.68;73.46;100820.89;126741;1085;104057;-76
2023/09/24 08:40:11;;;;;;;6.50;4.27;;;;;;;24.79;73.64;100817.11;126834;1086;104165;-77
2023/09/24 08:42:45;;;;;;;6.20;3.90;;;;;;;24.97;72.63;100818.59;126785;1086;110795;-78
2023/09/24 08:45:14;;;;;;;;;;;;;;;25.05;72.87;100812.14;126808;1086;104270;-78
2023/09/24 08:47:44;;;;;;;7.60;3.97;;;;;;;25.14;71.14;100813.77;126787;1086;104155;-78
2023/09/24 08:50:14;;;;;;;7.90;4.37;;;;;;;25.28;70.33;100813.50;127241;1086;102313;-77
2023/09/24 08:52:44;;;;;;;7.00;3.97;;;;;;;25.34;70.05;100805.34;127127;1085;104204;-78
2023/09/24 08:55:14;;;;;;;7.30;4.30;;;;;;;25.40;70.03;100801.62;126852;1086;101810;-77
2023/09/24 08:57:44;;;;;;;5.87;4.00;;;;;;;25.52;69.98;100795.12;126953;1086;104206;-77
2023/09/24 09:00:16;;;;;;;7.30;4.30;;;;;;;25.62;69.12;100802.08;126890;1086;104248;-78
2023/09/24 09:02:44;;;;;;;8.53;4.17;;;;;;;25.71;68.60;100801.88;126932;1086;102086;-78
2023/09/24 09:05:22;;;;;;;8.50;4.07;;;;;;;25.79;67.71;100799.89;126761;1086;104268;-78
2023/09/24 09:07:58;;;;;;;11.83;4.50;;;;;;;25.84;67.49;100800.66;126852;1085;102448;-78
2023/09/24 09:10:28;;;;;;;7.23;4.10;;;;;;;25.86;66.26;100802.44;126763;1086;104311;-77
2023/09/24 09:13:05;;;;;;;7.63;4.47;;;;;;;25.90;65.67;100804.12;126856;1086;102022;-77
2023/09/24 09:15:34;;;;;;;8.37;4.30;;;;;;;25.92;65.50;100805.86;126636;1086;101827;-76
2023/09/24 09:18:04;;;;;;;8.73;4.40;;;;;;;25.97;65.33;100808.45;126733;1085;101828;-76
2023/09/24 09:20:44;;;;;;;10.60;4.53;;;;;;;26.08;64.60;100802.85;126655;1086;104222;-77
2023/09/24 09:23:16;;;;;;;7.40;3.97;;;;;;;26.16;65.50;100801.76;126711;1085;104269;-76
2023/09/24 09:25:50;;;;;;;10.87;4.20;;;;;;;26.17;63.87;100805.33;127096;1086;102006;-78
2023/09/24 09:28:23;;;;;;;9.10;4.80;;;;;;;26.23;63.38;100801.61;126890;1086;102204;-77
2023/09/24 09:31:06;;;;;;;10.10;4.60;;;;;;;26.29;62.16;100807.72;126873;1086;101919;-79
2023/09/24 09:33:36;;;;;;;10.30;4.47;;;;;;;26.38;62.14;100801.20;126931;1086;112050;-77
2023/09/24 09:36:19;;;;;;;12.37;4.30;;;;;;;26.47;61.35;100800.97;127002;1085;104233;-78
2023/09/24 09:38:47;;;;;;;6.93;4.20;;;;;;;26.57;61.09;100800.73;126926;1086;104162;-77
2023/09/24 09:41:18;;;;;;;8.97;4.30;;;;;;;26.60;60.44;100797.97;126744;1086;104166;-80
2023/09/24 09:43:48;;;;;;;6.67;4.40;;;;;;;26.66;60.48;100805.91;126822;1086;102038;-80
2023/09/24 09:46:21;;;;;;;6.90;3.77;;;;;;;26.67;59.94;100813.08;126743;1086;104187;-76
2023/09/24 09:48:55;;;;;;;8.03;4.60;;;;;;;26.71;59.82;100806.70;126787;1086;102005;-78
2023/09/24 09:51:25;;;;;;;9.30;4.57;;;;;;;26.78;59.61;100810.97;126839;1086;104159;-79
2023/09/24 09:54:00;;;;;;;7.17;4.13;;;;;;;26.81;58.71;100810.02;126616;1086;102292;-77
2023/09/24 09:56:30;;;;;;;11.03;4.50;;;;;;;26.80;58.88;100814.53;126658;1086;104194;-76
2023/09/24 09:58:59;;;;;;;8.00;4.00;;;;;;;26.87;58.63;100810.73;126746;1086;104200;-77
2023/09/24 10:01:27;;;;;;;7.87;3.90;;;;;;;26.96;58.48;100800.63;126753;1086;104248;-78
2023/09/24 10:03:57;;;;;;;9.03;4.20;;;;;;;27.02;57.62;100809.44;126822;1085;101836;-80
2023/09/24 10:06:26;;;;;;;7.77;4.23;;;;;;;27.07;57.59;100801.23;126933;1086;103631;-78
2023/09/24 10:08:55;;;;;;;9.30;4.40;;;;;;;27.11;57.15;100800.20;126906;1086;102012;-78
2023/09/24 10:11:51;;;;;;;8.33;4.40;;;;;;;27.18;56.80;100793.72;126783;1086;101800;-78
2023/09/24 10:14:33;;;;;;;11.27;4.27;;;;;;;27.27;56.28;100787.20;126791;1086;104169;-78
2023/09/24 10:17:22;;;;;;;6.97;4.13;;;;;;;27.33;55.50;100791.53;126946;1085;104278;-80
2023/09/24 10:19:53;;;;;;;8.57;3.90;;;;;;;27.33;54.89;100794.23;126928;1086;104762;-79
2023/09/24 10:22:29;;;;;;;6.73;3.90;;;;;;;27.28;53.93;100797.02;126697;1086;104255;-77
2023/09/24 10:24:59;;;;;;;6.60;3.93;;;;;;;27.23;53.36;100785.51;126655;1086;110846;-77
2023/09/24 10:27:31;;;;;;;6.93;4.13;;;;;;;27.26;53.11;100788.11;126845;1086;101971;-78
2023/09/24 10:30:12;;;;;;;6.90;4.10;;;;;;;27.33;53.17;100784.36;126881;1086;104293;-77
2023/09/24 10:32:51;;;;;;;10.10;4.07;;;;;;;27.36;52.02;100781.58;126813;1086;104609;-77
2023/09/24 10:35:20;;;;;;;11.40;4.17;;;;;;;27.36;52.22;100783.36;126753;1086;104149;-78
2023/09/24 10:38:05;;;;;;;10.37;4.33;;;;;;;27.42;52.10;100785.87;126624;1086;104181;-78
2023/09/24 10:40:34;;;;;;;10.53;4.40;;;;;;;27.52;52.16;100771.20;126962;1086;104249;-78
2023/09/24 10:43:19;;;;;;;10.93;4.10;;;;;;;27.65;51.49;100773.53;126922;1086;101825;-78
2023/09/24 10:45:48;;;;;;;11.20;4.30;;;;;;;27.72;50.91;100767.00;126924;1086;106981;-77
2023/09/24 10:48:19;;;;;;;8.33;4.43;;;;;;;27.81;50.64;100772.10;126819;1086;101922;-78
2023/09/24 10:50:48;;;;;;;10.50;4.87;;;;;;;27.74;49.52;100762.46;126519;1085;104098;-77
2023/09/24 10:53:19;;;;;;;7.93;4.40;;;;;;;27.77;50.62;100762.37;126652;1085;102092;-78
2023/09/24 10:55:48;;;;;;;10.83;4.77;;;;;;;27.85;50.14;100757.60;126871;1086;118879;-78
2023/09/24 10:58:17;;;;;;;8.93;4.03;;;;;;;27.93;50.50;100758.23;126861;1086;104166;-81
2023/09/24 11:00:50;;;;;;;8.33;4.33;;;;;;;27.97;49.58;100750.94;127017;1085;104293;-80
2023/09/24 11:03:19;;;;;;;11.28;4.72;;;;;;;28.00;49.79;100761.63;126938;1086;104162;-78
2023/09/24 11:05:48;;;;;;;9.43;4.57;;;;;;;28.04;49.38;100747.12;127068;1086;104168;-79
2023/09/24 11:08:19;;;;;;;11.27;4.70;;;;;;;28.10;49.24;100740.66;127248;1086;102140;-79
2023/09/24 11:10:49;;;;;;;9.00;4.87;;;;;;;28.22;49.40;100742.03;127705;1086;101781;-79
2023/09/24 11:13:18;;;;;;;12.23;4.53;;;;;;;28.28;48.87;100734.64;126805;1086;104165;-79
2023/09/24 11:15:46;;;;;;;7.00;4.43;;;;;;;28.27;48.89;100740.96;126728;1086;102070;-79
2023/09/24 11:18:15;;;;;;;8.47;4.37;;;;;;;28.14;46.97;100737.80;127167;1086;104166;-80